Time;durP1;ratioP1;P1;durP2;ratioP2;P2;SDS_P1;SDS_P2;PMS_P1;PMS_P2;Temp;Humidity;BMP_temperature;BMP_pressure;BME280_temperature;BME280_humidity;BME280_pressure;Samples;Min_cycle;Max_cycle;Signal;HPM_P1;HPM_P2
2023/01/17 00:00:17;;;;;;;2.38;1.20;;;1.90;97.20;;;;;;5016535;28;20025;-69
2023/01/17 00:02:42;;;;;;;2.95;1.38;;;1.80;97.50;;;;;;5019943;28;20040;-69
2023/01/17 00:10:39;;;;;;;3.72;1.15;;;1.80;98.00;;;;;;5021756;28;20107;-68
2023/01/17 00:13:05;;;;;;;3.00;1.42;;;1.80;98.00;;;;;;5020145;28;20037;-69
2023/01/17 00:15:31;;;;;;;3.42;1.40;;;1.90;98.00;;;;;;5016206;28;20367;-68
2023/01/17 00:17:57;;;;;;;3.15;1.33;;;1.90;98.00;;;;;;5016539;28;20033;-68
2023/01/17 00:26:08;;;;;;;4.03;2.13;;;1.90;98.00;;;;;;5012743;28;20045;-70
2023/01/17 01:35:28;;;;;;;3.00;1.40;;;1.40;98.00;;;;;;5013569;28;20093;-68
2023/01/17 01:37:54;;;;;;;2.10;1.27;;;1.40;98.00;;;;;;4999210;28;20419;-69
2023/01/17 01:40:20;;;;;;;2.90;1.50;;;1.40;98.00;;;;;;5014074;28;20025;-69
2023/01/17 01:42:54;;;;;;;5.18;1.63;;;1.40;98.00;;;;;;5010594;28;20030;-69
2023/01/17 01:45:28;;;;;;;2.65;1.35;;;1.40;98.00;;;;;;5015414;28;20037;-69
2023/01/17 01:47:59;;;;;;;5.97;3.15;;;1.40;98.00;;;;;;5013348;28;20081;-69
2023/01/17 01:50:27;;;;;;;5.18;2.10;;;1.40;98.00;;;;;;4996142;28;20084;-69
2023/01/17 01:52:57;;;;;;;10.15;3.28;;;1.40;97.90;;;;;;5009592;28;20022;-69
2023/01/17 01:55:28;;;;;;;6.38;2.25;;;1.50;97.50;;;;;;5012068;28;20109;-68
2023/01/17 01:57:58;;;;;;;2.75;1.40;;;1.50;97.20;;;;;;5012936;28;20026;-69
2023/01/17 02:00:29;;;;;;;3.83;1.70;;;1.50;96.90;;;;;;5013705;28;20026;-67
2023/01/17 02:02:57;;;;;;;5.85;2.10;;;1.50;97.10;;;;;;5013586;28;20461;-68
2023/01/17 02:05:25;;;;;;;5.53;1.77;;;1.50;97.00;;;;;;5013892;28;20033;-68
2023/01/17 02:08:06;;;;;;;3.97;1.48;;;1.40;97.10;;;;;;5008856;28;20026;-68
2023/01/17 02:10:33;;;;;;;3.65;1.58;;;1.40;97.40;;;;;;5013416;28;20038;-68
2023/01/17 02:13:00;;;;;;;3.35;1.50;;;1.20;98.00;;;;;;5014614;28;20077;-67
2023/01/17 02:15:40;;;;;;;4.40;1.77;;;1.00;98.00;;;;;;4997591;28;20486;-69
2023/01/17 02:18:28;;;;;;;3.88;1.90;;;0.80;98.00;;;;;;5012259;28;20034;-68
2023/01/17 02:21:08;;;;;;;4.50;1.80;;;0.60;98.00;;;;;;5008901;28;20087;-68
2023/01/17 02:24:02;;;;;;;3.70;1.67;;;0.40;98.00;;;;;;5002882;28;20045;-68
2023/01/17 02:26:51;;;;;;;5.60;2.23;;;0.30;98.00;;;;;;5014939;28;20068;-68
2023/01/17 02:29:38;;;;;;;3.42;1.60;;;0.20;98.00;;;;;;5019775;28;20109;-68
2023/01/17 02:32:10;;;;;;;3.95;1.60;;;0.20;98.00;;;;;;5012432;28;20037;-67
2023/01/17 02:34:50;;;;;;;2.65;1.50;;;0.20;98.00;;;;;;5017599;28;20037;-68
2023/01/17 02:37:18;;;;;;;2.92;1.55;;;0.10;98.00;;;;;;5014830;28;20106;-68
2023/01/17 02:39:56;;;;;;;2.63;1.60;;;0.20;98.00;;;;;;5014097;28;20104;-67
2023/01/17 02:42:34;;;;;;;3.13;1.42;;;0.20;98.00;;;;;;5002681;28;20113;-67
2023/01/17 02:45:02;;;;;;;3.45;1.73;;;0.20;98.00;;;;;;5008097;28;20150;-67
2023/01/17 02:47:30;;;;;;;3.38;1.50;;;0.10;98.00;;;;;;5028246;28;20334;-68
2023/01/17 02:50:09;;;;;;;4.20;1.67;;;0.00;98.00;;;;;;5006998;28;20411;-68
2023/01/17 02:53:10;;;;;;;2.95;1.58;;;-0.10;98.00;;;;;;5005760;28;20041;-68
2023/01/17 02:55:45;;;;;;;5.32;2.13;;;-0.10;98.00;;;;;;4998022;28;20117;-68
2023/01/17 02:58:31;;;;;;;3.22;1.60;;;-0.10;98.00;;;;;;5015030;28;20030;-67
2023/01/17 03:01:36;;;;;;;3.92;1.80;;;0.30;98.00;;;;;;5000251;28;20052;-67
2023/01/17 03:04:07;;;;;;;;;;;0.40;97.10;;;;;;5015295;28;20092;-68
2023/01/17 03:06:42;;;;;;;4.25;1.40;;;0.70;94.90;;;;;;5013429;28;20290;-68
2023/01/17 03:09:09;;;;;;;4.07;1.90;;;0.90;94.00;;;;;;5012589;28;20037;-67
2023/01/17 03:11:35;;;;;;;3.13;1.40;;;1.00;92.90;;;;;;5014468;28;20168;-67
2023/01/17 03:14:03;;;;;;;2.60;1.30;;;1.10;92.10;;;;;;5014472;28;20104;-67
2023/01/17 03:16:32;;;;;;;4.05;1.40;;;1.10;91.80;;;;;;5015725;28;20026;-66
2023/01/17 03:18:57;;;;;;;4.78;1.85;;;1.10;91.50;;;;;;5014766;28;20026;-66
2023/01/17 03:21:23;;;;;;;5.22;2.10;;;1.00;91.70;;;;;;5010776;28;20036;-68
2023/01/17 03:23:49;;;;;;;4.07;1.30;;;1.00;91.60;;;;;;5014209;28;20018;-66
2023/01/17 03:26:15;;;;;;;4.10;1.38;;;0.90;91.20;;;;;;5015299;28;20030;-68
2023/01/17 03:28:40;;;;;;;3.58;1.48;;;1.00;91.20;;;;;;5000192;28;20309;-67
2023/01/17 03:31:06;;;;;;;3.28;1.30;;;1.00;91.00;;;;;;5014599;28;20041;-68
2023/01/17 03:33:32;;;;;;;2.13;1.17;;;1.00;91.00;;;;;;5010231;28;20026;-68
2023/01/17 03:35:58;;;;;;;3.00;1.40;;;1.00;90.70;;;;;;5015707;28;20101;-66
2023/01/17 03:38:27;;;;;;;3.72;1.40;;;1.10;90.40;;;;;;5013591;28;20080;-67
2023/01/17 03:40:53;;;;;;;2.28;1.23;;;1.00;90.50;;;;;;5013766;28;20022;-67
2023/01/17 03:43:19;;;;;;;3.60;1.48;;;1.00;90.60;;;;;;5011167;28;20025;-67
2023/01/17 03:45:48;;;;;;;3.75;1.33;;;1.00;90.40;;;;;;5020190;28;20437;-67
2023/01/17 03:48:14;;;;;;;5.00;1.40;;;1.00;90.40;;;;;;5032047;28;20101;-67
2023/01/17 03:50:39;;;;;;;13.07;4.20;;;0.80;91.00;;;;;;5023255;28;20109;-67
2023/01/17 03:53:05;;;;;;;8.70;2.45;;;0.70;91.30;;;;;;5015813;28;20041;-66
2023/01/17 03:55:30;;;;;;;6.00;2.28;;;0.50;91.70;;;;;;5012638;28;20038;-67
2023/01/17 03:57:56;;;;;;;3.70;1.50;;;0.40;92.20;;;;;;5016947;28;20025;-67
2023/01/17 04:00:22;;;;;;;3.35;1.20;;;0.70;90.50;;;;;;5016195;28;20061;-67
2023/01/17 04:02:47;;;;;;;2.70;1.40;;;0.80;90.00;;;;;;5013833;28;20100;-66
2023/01/17 04:05:13;;;;;;;5.82;1.73;;;1.00;89.10;;;;;;4995030;28;20034;-67
2023/01/17 04:07:40;;;;;;;2.47;1.35;;;1.20;87.90;;;;;;4996955;28;20415;-67
2023/01/17 04:10:06;;;;;;;2.60;1.20;;;1.20;87.70;;;;;;5010467;28;20065;-67
2023/01/17 04:12:31;;;;;;;2.25;1.30;;;1.30;88.00;;;;;;5008251;28;20030;-67
2023/01/17 04:14:57;;;;;;;2.90;1.23;;;1.20;88.50;;;;;;5012569;28;20049;-66
2023/01/17 04:17:23;;;;;;;5.38;1.83;;;1.30;88.80;;;;;;5018845;28;20103;-66
2023/01/17 04:19:49;;;;;;;3.00;1.60;;;1.30;89.00;;;;;;5008562;28;20117;-66
2023/01/17 04:22:14;;;;;;;4.20;1.63;;;1.30;89.50;;;;;;5011571;28;20109;-67
2023/01/17 04:24:40;;;;;;;12.45;3.28;;;1.20;90.10;;;;;;5012256;28;20107;-65
2023/01/17 04:27:05;;;;;;;5.13;1.73;;;1.20;90.70;;;;;;5007898;28;20127;-66
2023/01/17 04:29:31;;;;;;;5.68;1.65;;;1.10;91.10;;;;;;5016411;28;20106;-67
2023/01/17 04:31:56;;;;;;;3.88;1.88;;;1.20;91.30;;;;;;5006606;28;20108;-66
2023/01/17 04:34:22;;;;;;;3.15;1.33;;;1.20;91.60;;;;;;5010961;28;20060;-66
2023/01/17 04:36:48;;;;;;;2.38;1.27;;;1.20;92.00;;;;;;5013335;28;20046;-67
2023/01/17 04:39:13;;;;;;;4.38;1.60;;;1.10;92.40;;;;;;5016985;28;20052;-67
2023/01/17 04:41:39;;;;;;;3.03;1.58;;;1.10;92.70;;;;;;5015749;28;20073;-68
2023/01/17 04:44:04;;;;;;;4.75;1.40;;;1.00;93.20;;;;;;5014502;28;20033;-67
2023/01/17 04:46:30;;;;;;;3.55;1.70;;;0.90;93.60;;;;;;5015839;28;20034;-67
2023/01/17 04:48:56;;;;;;;4.03;1.90;;;0.80;93.90;;;;;;5017708;28;20149;-66
2023/01/17 04:51:21;;;;;;;5.00;1.90;;;0.80;94.20;;;;;;5014491;28;20029;-67
2023/01/17 04:53:47;;;;;;;3.33;1.60;;;0.70;94.50;;;;;;5013772;28;20030;-66
2023/01/17 04:56:13;;;;;;;4.57;1.70;;;0.70;94.40;;;;;;4995045;28;20109;-67
2023/01/17 04:58:39;;;;;;;6.38;2.10;;;0.60;94.70;;;;;;5014183;28;20060;-66
2023/01/17 05:01:06;;;;;;;5.28;1.70;;;0.50;95.10;;;;;;5014415;28;20038;-66
2023/01/17 05:03:33;;;;;;;5.57;2.17;;;0.50;95.30;;;;;;5012412;28;20044;-67
2023/01/17 05:06:02;;;;;;;5.25;2.55;;;0.50;95.30;;;;;;5019314;28;20024;-67
2023/01/17 05:08:27;;;;;;;4.57;2.13;;;0.60;95.40;;;;;;5019275;28;20029;-68
2023/01/17 05:10:53;;;;;;;4.15;1.98;;;0.60;94.70;;;;;;5018923;28;20046;-67
2023/01/17 05:13:19;;;;;;;5.40;2.28;;;0.70;94.40;;;;;;5020183;28;20021;-66
2023/01/17 05:15:45;;;;;;;4.55;2.10;;;0.70;94.40;;;;;;5011772;28;20037;-66
2023/01/17 05:18:17;;;;;;;4.13;1.80;;;0.70;94.40;;;;;;5011527;28;20033;-66
2023/01/17 05:20:43;;;;;;;3.55;1.65;;;0.70;94.20;;;;;;5012726;28;20057;-65
2023/01/17 05:23:09;;;;;;;5.10;2.40;;;0.70;93.90;;;;;;5018140;28;20065;-66
2023/01/17 05:25:35;;;;;;;5.13;1.83;;;0.80;94.00;;;;;;5009576;28;20434;-66
2023/01/17 05:28:01;;;;;;;4.30;1.90;;;0.80;93.70;;;;;;5011912;28;20083;-66
2023/01/17 05:30:29;;;;;;;7.82;2.33;;;0.90;92.30;;;;;;5013302;28;20037;-67
2023/01/17 05:32:56;;;;;;;2.97;1.70;;;0.90;92.60;;;;;;5015116;28;20036;-66
2023/01/17 05:35:25;;;;;;;3.92;1.67;;;1.00;92.20;;;;;;5016308;28;20029;-67
2023/01/17 05:37:51;;;;;;;6.82;2.47;;;1.00;91.00;;;;;;5013170;28;20030;-66
2023/01/17 05:40:19;;;;;;;4.22;2.08;;;1.10;90.30;;;;;;5011287;28;20324;-65
2023/01/17 05:42:56;;;;;;;8.48;3.83;;;1.10;89.90;;;;;;5015916;28;20021;-66
2023/01/17 05:45:23;;;;;;;7.35;3.80;;;1.20;90.20;;;;;;5013398;28;20018;-66
2023/01/17 05:47:51;;;;;;;6.80;3.53;;;1.10;90.80;;;;;;5015428;28;20129;-66
2023/01/17 05:50:24;;;;;;;4.05;1.60;;;1.10;90.90;;;;;;5011078;28;20038;-66
2023/01/17 05:52:51;;;;;;;3.45;1.85;;;1.10;88.90;;;;;;4997417;28;20041;-66
2023/01/17 05:55:17;;;;;;;4.55;2.28;;;1.00;87.40;;;;;;5014427;28;20036;-66
2023/01/17 05:57:42;;;;;;;14.60;5.88;;;0.90;88.00;;;;;;4999153;28;20034;-66
2023/01/17 06:00:09;;;;;;;11.52;4.63;;;0.70;88.80;;;;;;5017181;28;20033;-67
2023/01/17 06:02:34;;;;;;;6.15;3.10;;;0.60;89.70;;;;;;5018981;28;20030;-66
2023/01/17 06:05:00;;;;;;;3.55;2.10;;;0.30;90.60;;;;;;5011086;28;20057;-67
2023/01/17 06:07:25;;;;;;;3.95;2.05;;;0.30;91.10;;;;;;5014265;28;20044;-66
2023/01/17 06:09:51;;;;;;;4.80;2.83;;;0.30;91.40;;;;;;5016236;28;20077;-66
2023/01/17 06:12:16;;;;;;;4.70;2.53;;;0.20;91.80;;;;;;5008691;28;20030;-66
2023/01/17 06:14:42;;;;;;;7.68;2.67;;;0.20;92.20;;;;;;5007621;28;20026;-66
2023/01/17 06:17:08;;;;;;;4.93;2.50;;;0.20;92.50;;;;;;5015429;28;20061;-66
2023/01/17 06:19:33;;;;;;;4.55;2.20;;;0.10;93.70;;;;;;5026636;28;20110;-67
2023/01/17 06:22:05;;;;;;;3.40;1.90;;;0.00;94.80;;;;;;5013919;28;20454;-66
2023/01/17 06:24:32;;;;;;;3.35;1.83;;;-0.10;95.10;;;;;;5017471;28;20072;-66
2023/01/17 06:26:58;;;;;;;3.90;1.75;;;-0.30;95.90;;;;;;5018493;28;20084;-66
2023/01/17 06:29:24;;;;;;;2.78;1.48;;;-0.30;96.20;;;;;;5012279;28;20041;-66
2023/01/17 06:31:49;;;;;;;3.65;1.60;;;-0.30;96.10;;;;;;5016192;28;20033;-67
2023/01/17 06:34:15;;;;;;;4.82;1.40;;;-0.20;96.40;;;;;;5014862;28;20414;-66
2023/01/17 06:36:40;;;;;;;2.78;1.45;;;-0.10;95.40;;;;;;5014703;28;20110;-66
2023/01/17 06:39:06;;;;;;;4.68;1.92;;;-0.20;95.60;;;;;;5015014;28;20026;-66
2023/01/17 06:41:32;;;;;;;5.35;1.70;;;-0.20;96.00;;;;;;5013570;28;20061;-66
2023/01/17 06:43:57;;;;;;;4.15;1.70;;;-0.20;96.00;;;;;;5010588;28;20125;-66
2023/01/17 06:46:24;;;;;;;4.13;2.22;;;-0.30;95.80;;;;;;5016316;28;20030;-66
2023/01/17 06:48:50;;;;;;;5.93;3.35;;;-0.30;96.20;;;;;;5016942;28;20022;-66
2023/01/17 06:51:16;;;;;;;8.60;4.38;;;-0.30;96.20;;;;;;4998691;28;20044;-66
2023/01/17 06:53:41;;;;;;;10.05;5.22;;;-0.50;96.40;;;;;;5026892;28;20021;-66
2023/01/17 06:56:08;;;;;;;8.30;4.72;;;-0.60;97.00;;;;;;5017131;28;20464;-66
2023/01/17 06:58:34;;;;;;;8.73;4.78;;;-0.80;97.30;;;;;;5016300;28;20033;-66
2023/01/17 07:01:11;;;;;;;5.75;2.90;;;-1.00;97.80;;;;;;5014740;28;20072;-66
2023/01/17 07:03:37;;;;;;;5.60;3.45;;;-1.10;98.00;;;;;;5016313;28;20026;-66
2023/01/17 07:06:03;;;;;;;12.38;6.40;;;-1.10;98.00;;;;;;5014759;28;20403;-65
2023/01/17 07:08:30;;;;;;;30.95;15.07;;;-1.20;98.00;;;;;;5015554;28;20092;-65
2023/01/17 07:11:01;;;;;;;32.95;15.15;;;-1.10;98.00;;;;;;5014393;28;20061;-66
2023/01/17 07:13:27;;;;;;;9.77;5.07;;;-1.20;98.00;;;;;;5015898;28;20038;-66
2023/01/17 07:15:53;;;;;;;5.72;3.50;;;-1.20;98.00;;;;;;5011388;28;20109;-65
2023/01/17 07:18:22;;;;;;;4.07;1.85;;;-1.30;98.00;;;;;;5015088;28;20112;-65
2023/01/17 07:20:48;;;;;;;4.32;1.95;;;-1.30;98.00;;;;;;5012362;28;20326;-65
2023/01/17 07:23:13;;;;;;;3.95;2.10;;;-1.30;98.00;;;;;;5013552;28;20025;-65
2023/01/17 07:25:39;;;;;;;7.95;3.78;;;-1.30;98.00;;;;;;5014754;28;20022;-65
2023/01/17 07:28:04;;;;;;;7.20;2.58;;;-1.20;98.00;;;;;;5016894;28;20026;-65
2023/01/17 07:30:30;;;;;;;10.13;3.20;;;-1.20;98.00;;;;;;5017618;28;20326;-67
2023/01/17 07:32:56;;;;;;;9.07;3.92;;;-1.10;98.00;;;;;;5023652;28;20073;-67
2023/01/17 07:35:25;;;;;;;16.85;6.53;;;-1.00;98.00;;;;;;5017095;28;20042;-67
2023/01/17 07:37:51;;;;;;;16.20;6.00;;;-0.90;98.00;;;;;;5016561;28;20041;-67
2023/01/17 07:40:21;;;;;;;10.52;5.28;;;-0.90;98.00;;;;;;5016874;28;20038;-67
2023/01/17 07:42:47;;;;;;;5.95;3.90;;;-0.90;98.00;;;;;;5015601;28;20049;-66
2023/01/17 07:45:14;;;;;;;7.53;3.55;;;-0.90;98.00;;;;;;4996263;28;20018;-67
2023/01/17 07:47:40;;;;;;;6.50;3.00;;;-0.80;98.00;;;;;;5022813;28;20129;-67
2023/01/17 07:50:07;;;;;;;5.00;1.90;;;-0.70;98.00;;;;;;5016281;28;20097;-69
2023/01/17 07:52:32;;;;;;;6.53;2.05;;;-0.60;98.00;;;;;;5011312;28;20036;-66
2023/01/17 07:54:58;;;;;;;11.20;3.55;;;-0.60;98.00;;;;;;5013705;28;20021;-66
2023/01/17 07:57:23;;;;;;;19.33;6.88;;;-0.40;98.00;;;;;;5017046;28;20056;-66
2023/01/17 07:59:52;;;;;;;11.30;4.03;;;-0.30;98.00;;;;;;5017302;28;20026;-66
2023/01/17 08:02:22;;;;;;;9.32;3.65;;;-0.20;98.00;;;;;;5015777;28;20306;-66
2023/01/17 08:04:48;;;;;;;5.80;2.30;;;-0.10;97.80;;;;;;5017425;28;20441;-66
2023/01/17 08:07:14;;;;;;;5.68;2.60;;;0.00;97.60;;;;;;5015137;28;20041;-66
2023/01/17 08:09:41;;;;;;;6.25;2.90;;;0.10;97.70;;;;;;5017385;28;20021;-66
2023/01/17 08:12:08;;;;;;;7.03;3.85;;;0.10;97.70;;;;;;4985898;28;20027;-67
2023/01/17 08:14:33;;;;;;;5.20;2.75;;;0.10;97.70;;;;;;5000254;28;20026;-67
2023/01/17 08:17:10;;;;;;;2.88;1.75;;;0.10;97.80;;;;;;5017168;28;20319;-66
2023/01/17 08:19:35;;;;;;;3.78;1.70;;;0.10;97.60;;;;;;4996542;28;20105;-65
2023/01/17 08:22:01;;;;;;;7.05;3.50;;;0.20;97.20;;;;;;4996590;28;20105;-66
2023/01/17 08:24:26;;;;;;;9.63;3.70;;;0.20;97.10;;;;;;5015608;28;20036;-66
2023/01/17 08:26:55;;;;;;;6.80;3.38;;;0.30;97.40;;;;;;5015543;28;20415;-65
2023/01/17 08:29:22;;;;;;;6.40;3.60;;;0.30;97.50;;;;;;5015494;28;20029;-65
2023/01/17 08:31:47;;;;;;;6.45;2.95;;;0.40;97.70;;;;;;5015311;28;20065;-66
2023/01/17 08:34:13;;;;;;;8.93;4.30;;;0.50;97.70;;;;;;5017089;28;20072;-65
2023/01/17 08:36:39;;;;;;;7.57;4.45;;;0.60;97.40;;;;;;5014826;28;20041;-65
2023/01/17 08:39:05;;;;;;;8.55;3.45;;;0.80;97.20;;;;;;5013102;28;20030;-67
2023/01/17 08:41:31;;;;;;;5.80;2.17;;;0.90;96.70;;;;;;5013764;28;20033;-66
2023/01/17 08:43:56;;;;;;;3.03;1.40;;;1.10;96.70;;;;;;5016899;28;20035;-66
2023/01/17 08:46:23;;;;;;;2.80;1.40;;;1.30;96.10;;;;;;5016925;28;20021;-66
2023/01/17 08:48:53;;;;;;;2.85;1.75;;;1.40;95.00;;;;;;5015770;28;20030;-66
2023/01/17 08:51:18;;;;;;;6.25;1.70;;;1.40;94.70;;;;;;5015018;28;20018;-66
2023/01/17 08:53:44;;;;;;;2.40;1.50;;;1.50;94.80;;;;;;5014193;28;20032;-66
2023/01/17 08:56:09;;;;;;;4.10;1.90;;;1.60;94.70;;;;;;5016643;28;20430;-65
2023/01/17 08:58:35;;;;;;;5.20;1.88;;;1.70;94.40;;;;;;5015753;28;20034;-65
2023/01/17 09:01:02;;;;;;;6.03;1.80;;;1.90;94.10;;;;;;5016626;28;20436;-66
2023/01/17 09:03:28;;;;;;;4.88;2.33;;;2.00;93.60;;;;;;5015781;28;20370;-65
2023/01/17 09:06:06;;;;;;;5.18;2.45;;;2.00;93.00;;;;;;4999184;28;20048;-66
2023/01/17 09:08:33;;;;;;;5.38;2.22;;;2.10;93.40;;;;;;5014290;28;20034;-66
2023/01/17 09:11:03;;;;;;;6.07;2.20;;;2.20;93.20;;;;;;4999093;28;20077;-66
2023/01/17 09:13:29;;;;;;;4.78;1.92;;;2.20;93.20;;;;;;5015747;28;20036;-66
2023/01/17 09:15:56;;;;;;;5.60;2.55;;;2.30;93.60;;;;;;4998188;28;20088;-66
2023/01/17 09:18:22;;;;;;;16.90;7.03;;;2.30;93.20;;;;;;4997519;28;20037;-65
2023/01/17 09:20:48;;;;;;;8.90;3.92;;;2.00;93.60;;;;;;5016206;28;20076;-66
2023/01/17 09:23:13;;;;;;;10.23;4.53;;;1.70;94.70;;;;;;5014093;28;20037;-65
2023/01/17 09:25:43;;;;;;;9.10;4.88;;;1.60;95.40;;;;;;5016245;28;20106;-66
2023/01/17 09:28:09;;;;;;;7.20;3.70;;;1.60;95.80;;;;;;5015228;28;20359;-66
2023/01/17 09:30:35;;;;;;;5.05;2.67;;;1.80;95.80;;;;;;5015805;28;20108;-66
2023/01/17 09:33:00;;;;;;;7.75;2.80;;;2.10;94.90;;;;;;5014203;28;20511;-66
2023/01/17 09:35:26;;;;;;;6.32;2.42;;;2.10;94.20;;;;;;5015125;28;20442;-66
2023/01/17 09:37:51;;;;;;;5.35;2.78;;;2.10;94.00;;;;;;5011959;28;20099;-66
2023/01/17 09:40:21;;;;;;;5.55;2.28;;;2.10;94.20;;;;;;5015983;28;20064;-66
2023/01/17 09:42:52;;;;;;;5.30;2.42;;;2.10;94.00;;;;;;5014280;28;20029;-67
2023/01/17 09:45:18;;;;;;;6.00;2.22;;;2.30;93.70;;;;;;5016185;28;20070;-66
2023/01/17 09:47:47;;;;;;;5.38;2.40;;;2.20;93.60;;;;;;5015037;28;20038;-66
2023/01/17 09:50:30;;;;;;;4.68;2.20;;;2.10;93.90;;;;;;5016227;28;20022;-66
2023/01/17 09:53:06;;;;;;;4.10;2.20;;;2.00;94.10;;;;;;5013589;28;20030;-66
2023/01/17 09:55:42;;;;;;;5.25;2.28;;;2.20;94.40;;;;;;5015913;28;20338;-66
2023/01/17 09:58:17;;;;;;;5.55;2.58;;;2.40;93.90;;;;;;5015258;28;20030;-66
2023/01/17 10:00:48;;;;;;;5.18;2.53;;;2.70;93.50;;;;;;5015838;28;20080;-66
2023/01/17 10:03:35;;;;;;;5.35;2.67;;;3.00;92.80;;;;;;5015773;28;20026;-67
2023/01/17 10:06:50;;;;;;;5.38;3.10;;;3.20;92.20;;;;;;5014738;28;20134;-66
2023/01/17 10:09:39;;;;;;;5.60;2.92;;;3.80;91.00;;;;;;5011691;28;20041;-66
2023/01/17 10:12:08;;;;;;;6.88;3.30;;;4.10;90.60;;;;;;5014953;28;20030;-66
2023/01/17 10:15:05;;;;;;;6.40;3.30;;;4.10;90.50;;;;;;5015901;28;20073;-67
2023/01/17 10:17:39;;;;;;;5.10;2.20;;;4.30;91.30;;;;;;4963723;28;20038;-67
2023/01/17 10:20:10;;;;;;;5.38;2.97;;;5.00;88.60;;;;;;5015691;28;20288;-66
2023/01/17 10:22:59;;;;;;;5.15;2.45;;;4.90;87.80;;;;;;5014528;28;20037;-67
2023/01/17 10:25:39;;;;;;;7.15;3.20;;;5.00;87.40;;;;;;5015679;28;20104;-67
2023/01/17 10:28:17;;;;;;;4.70;2.33;;;5.20;87.10;;;;;;5013170;28;20037;-67
2023/01/17 10:30:44;;;;;;;6.40;2.55;;;5.80;86.10;;;;;;5015612;28;20378;-67
2023/01/17 10:33:20;;;;;;;5.80;2.60;;;5.80;84.80;;;;;;5015562;28;20353;-67
2023/01/17 10:36:14;;;;;;;6.90;3.13;;;5.50;84.60;;;;;;5015645;28;20030;-65
2023/01/17 10:38:45;;;;;;;4.20;2.00;;;4.80;86.20;;;;;;5009567;28;20030;-66
2023/01/17 10:41:31;;;;;;;3.85;2.17;;;4.40;87.50;;;;;;5015386;28;20285;-68
2023/01/17 10:44:14;;;;;;;6.85;2.13;;;4.20;88.70;;;;;;5017391;28;20025;-68
2023/01/17 10:47:05;;;;;;;5.07;2.70;;;4.10;89.50;;;;;;5015343;28;20095;-67
2023/01/17 10:49:31;;;;;;;4.38;1.75;;;4.10;89.90;;;;;;5018235;28;20104;-68
2023/01/17 10:52:12;;;;;;;6.68;1.63;;;4.00;88.30;;;;;;5017705;28;20360;-68
2023/01/17 10:55:09;;;;;;;5.00;1.83;;;3.90;88.50;;;;;;5018807;28;20354;-67
2023/01/17 10:57:43;;;;;;;5.85;2.80;;;3.60;88.90;;;;;;5001456;28;20026;-67
2023/01/17 11:00:30;;;;;;;;;;;3.40;90.20;;;;;;5019322;28;20022;-68
2023/01/17 11:02:56;;;;;;;6.28;1.90;;;3.30;90.80;;;;;;5017592;28;19916;-67
2023/01/17 11:05:27;;;;;;;4.82;1.77;;;3.50;91.70;;;;;;5018635;28;20018;-67
2023/01/17 11:08:07;;;;;;;5.90;1.77;;;3.60;90.90;;;;;;5017574;28;20018;-68
2023/01/17 11:10:43;;;;;;;7.65;1.88;;;4.00;90.60;;;;;;5018449;28;20046;-68
2023/01/17 11:13:20;;;;;;;4.40;1.90;;;4.40;88.50;;;;;;5018588;28;20025;-67
2023/01/17 11:16:15;;;;;;;6.32;2.20;;;4.50;86.60;;;;;;5018561;28;20029;-68
2023/01/17 11:18:41;;;;;;;3.15;1.50;;;4.60;86.90;;;;;;5012268;28;20075;-67
2023/01/17 11:21:23;;;;;;;7.60;3.25;;;4.80;86.30;;;;;;5017049;28;20331;-68
2023/01/17 11:23:53;;;;;;;6.25;2.00;;;4.90;85.60;;;;;;5018418;28;20410;-68
2023/01/17 11:26:29;;;;;;;4.85;2.15;;;5.10;85.50;;;;;;5000794;28;20410;-68
2023/01/17 11:29:15;;;;;;;6.28;2.30;;;5.20;85.00;;;;;;5018339;28;20030;-68
2023/01/17 11:31:40;;;;;;;4.43;1.73;;;5.10;84.40;;;;;;5017227;28;20034;-68
2023/01/17 11:34:23;;;;;;;7.57;3.13;;;4.90;84.40;;;;;;5018198;28;20087;-68
2023/01/17 11:36:49;;;;;;;191.90;95.85;;;4.50;84.70;;;;;;5016869;28;20025;-68
2023/01/17 11:39:26;;;;;;;23.40;13.38;;;4.50;84.40;;;;;;5000761;28;20326;-68
2023/01/17 11:41:52;;;;;;;521.08;233.68;;;4.30;84.80;;;;;;5017810;28;20030;-68
2023/01/17 11:44:33;;;;;;;39.22;17.52;;;4.10;83.90;;;;;;5017993;28;20104;-68
2023/01/17 11:47:18;;;;;;;11.95;5.65;;;3.90;84.90;;;;;;5017131;28;20036;-68
2023/01/17 11:49:47;;;;;;;21.90;17.42;;;3.80;85.20;;;;;;5017883;28;20446;-68
2023/01/17 11:52:25;;;;;;;8.75;5.47;;;3.60;84.60;;;;;;5015433;28;20026;-68
2023/01/17 11:54:53;;;;;;;6.45;3.28;;;3.50;85.00;;;;;;5017792;28;20049;-69
2023/01/17 11:57:25;;;;;;;9.20;4.00;;;3.50;85.20;;;;;;5014691;28;20030;-68
2023/01/17 12:00:14;;;;;;;4.53;2.00;;;3.40;85.30;;;;;;4999339;28;20022;-68
2023/01/17 12:02:57;;;;;;;6.20;3.20;;;3.40;84.50;;;;;;5017004;28;20021;-69
2023/01/17 12:05:33;;;;;;;4.55;2.17;;;3.40;83.40;;;;;;5014730;28;20014;-69
2023/01/17 12:08:10;;;;;;;9.05;4.35;;;3.40;83.70;;;;;;5014488;28;20022;-69
2023/01/17 12:11:24;;;;;;;4.53;2.22;;;3.40;83.90;;;;;;5017562;28;20053;-67
2023/01/17 12:14:03;;;;;;;3.47;1.50;;;3.60;84.50;;;;;;4955816;28;20042;-69
2023/01/17 12:16:38;;;;;;;3.95;2.00;;;3.60;84.20;;;;;;5017700;28;20034;-67
2023/01/17 12:19:33;;;;;;;4.88;2.58;;;3.70;83.70;;;;;;5015014;28;20050;-68
2023/01/17 12:22:16;;;;;;;5.60;2.10;;;4.00;83.80;;;;;;5014707;28;20033;-67
2023/01/17 12:24:45;;;;;;;4.95;2.00;;;4.10;82.60;;;;;;5014604;28;20477;-68
2023/01/17 12:27:22;;;;;;;4.03;1.80;;;4.00;82.10;;;;;;5011336;28;20046;-67
2023/01/17 12:30:25;;;;;;;4.35;2.13;;;3.80;82.40;;;;;;4982871;28;20049;-67
2023/01/17 12:33:32;;;;;;;7.82;3.55;;;3.60;82.70;;;;;;5013987;28;20030;-68
2023/01/17 12:36:05;;;;;;;8.18;4.40;;;3.60;83.80;;;;;;5016267;28;20415;-68
2023/01/17 12:38:38;;;;;;;5.30;2.33;;;3.70;83.30;;;;;;5014943;28;20422;-68
2023/01/17 12:41:23;;;;;;;5.78;3.00;;;3.90;83.70;;;;;;5016306;28;20315;-69
2023/01/17 12:43:55;;;;;;;4.82;2.47;;;3.90;83.40;;;;;;5014891;28;20014;-68
2023/01/17 12:46:30;;;;;;;4.97;2.85;;;3.90;83.90;;;;;;5013608;28;20018;-68
2023/01/17 12:49:17;;;;;;;4.63;2.40;;;3.90;83.70;;;;;;5014137;28;20026;-68
2023/01/17 12:51:51;;;;;;;5.25;2.92;;;3.80;83.90;;;;;;5014359;28;20099;-68
2023/01/17 12:54:30;;;;;;;5.20;2.35;;;3.80;84.90;;;;;;5011886;28;21786;-68
2023/01/17 12:57:02;;;;;;;5.88;2.95;;;3.70;84.60;;;;;;5000366;28;20126;-68
2023/01/17 12:59:31;;;;;;;6.05;2.72;;;3.70;84.30;;;;;;4997975;28;20068;-69
2023/01/17 13:02:00;;;;;;;6.43;2.50;;;3.60;84.30;;;;;;5016644;28;20025;-68
2023/01/17 13:04:39;;;;;;;4.28;2.20;;;3.40;84.00;;;;;;5014010;28;20104;-68
2023/01/17 13:07:47;;;;;;;6.00;2.70;;;3.40;84.30;;;;;;5021179;28;20135;-68
2023/01/17 13:10:49;;;;;;;5.95;2.65;;;3.40;84.10;;;;;;5016925;28;20046;-68
2023/01/17 13:13:24;;;;;;;6.03;2.30;;;3.50;83.40;;;;;;5006006;28;20084;-68
2023/01/17 13:16:14;;;;;;;4.30;2.10;;;3.30;82.90;;;;;;5018396;28;20030;-68
2023/01/17 13:18:46;;;;;;;6.65;2.58;;;3.30;83.40;;;;;;4995350;28;20048;-68
2023/01/17 13:21:30;;;;;;;31.45;14.65;;;3.40;83.90;;;;;;5021150;28;20057;-68
2023/01/17 13:24:00;;;;;;;5.20;2.67;;;3.40;84.50;;;;;;5017122;28;20022;-68
2023/01/17 13:26:47;;;;;;;5.47;2.67;;;3.40;84.80;;;;;;4998275;28;20476;-68
2023/01/17 13:29:47;;;;;;;5.82;2.90;;;3.30;85.00;;;;;;5013563;28;20104;-68
2023/01/17 13:32:44;;;;;;;6.25;2.97;;;3.30;85.20;;;;;;5015772;28;20022;-68
2023/01/17 13:35:19;;;;;;;5.07;2.63;;;3.20;85.40;;;;;;4982537;28;20125;-68
2023/01/17 13:38:09;;;;;;;7.15;3.35;;;3.10;85.20;;;;;;5000993;28;20034;-69
2023/01/17 13:40:53;;;;;;;5.50;2.50;;;3.00;85.10;;;;;;5014349;28;20057;-69
2023/01/17 13:43:25;;;;;;;6.90;3.67;;;2.90;85.40;;;;;;5014760;28;20030;-68
2023/01/17 13:45:53;;;;;;;4.95;2.90;;;2.80;86.00;;;;;;4998394;28;20331;-68
2023/01/17 13:48:24;;;;;;;6.22;2.92;;;2.80;85.80;;;;;;5015237;28;20037;-68
2023/01/17 13:50:58;;;;;;;6.80;2.92;;;2.70;86.00;;;;;;5014032;28;20092;-68
2023/01/17 13:53:32;;;;;;;5.75;3.00;;;2.70;86.60;;;;;;5001114;28;20034;-68
2023/01/17 13:56:17;;;;;;;7.57;4.40;;;2.70;86.40;;;;;;4997244;28;20033;-68
2023/01/17 13:58:49;;;;;;;10.02;3.80;;;2.60;86.60;;;;;;5014363;28;20065;-69
2023/01/17 14:01:37;;;;;;;6.70;3.72;;;2.60;86.10;;;;;;5015383;28;20029;-69
2023/01/17 14:04:06;;;;;;;5.32;2.95;;;2.50;86.20;;;;;;5007522;28;20058;-68
2023/01/17 14:06:48;;;;;;;6.57;3.60;;;2.50;86.00;;;;;;5014532;28;20121;-68
2023/01/17 14:09:36;;;;;;;5.65;2.90;;;2.40;85.90;;;;;;4997288;28;20025;-68
2023/01/17 14:12:05;;;;;;;8.45;4.50;;;2.30;86.10;;;;;;4992920;28;20034;-68
2023/01/17 14:14:39;;;;;;;7.40;3.72;;;2.30;86.50;;;;;;4996168;28;20033;-69
2023/01/17 14:17:26;;;;;;;6.00;3.13;;;2.20;87.00;;;;;;5018909;28;20025;-68
2023/01/17 14:20:00;;;;;;;6.93;3.63;;;2.10;87.00;;;;;;5016463;28;20037;-68
2023/01/17 14:22:28;;;;;;;6.00;3.28;;;2.10;87.00;;;;;;5017637;28;20296;-68
2023/01/17 14:25:10;;;;;;;5.65;2.95;;;2.00;87.60;;;;;;5017719;28;20041;-68
2023/01/17 14:27:50;;;;;;;7.47;4.10;;;2.00;87.80;;;;;;5019448;28;20370;-68
2023/01/17 14:30:16;;;;;;;9.90;3.95;;;1.90;87.90;;;;;;5016196;28;20113;-68
2023/01/17 14:33:00;;;;;;;9.30;4.30;;;1.90;88.30;;;;;;5018122;28;20030;-68
2023/01/17 14:35:31;;;;;;;6.70;3.90;;;1.90;88.90;;;;;;5019204;28;20025;-68
2023/01/17 14:37:57;;;;;;;15.40;7.90;;;1.80;88.80;;;;;;5016945;28;20029;-68